Time;durP1;ratioP1;P1;durP2;ratioP2;P2;SDS_P1;SDS_P2;PMS_P1;PMS_P2;Temp;Humidity;BMP_temperature;BMP_pressure;BME280_temperature;BME280_humidity;BME280_pressure;Samples;Min_cycle;Max_cycle;Signal;HPM_P1;HPM_P2
2023/09/22 00:00:19;;;;;;;161.15;55.80;;;14.00;99.90;;;;;;4977275;28;20046;-85
2023/09/22 00:02:46;;;;;;;63.50;44.85;;;14.00;99.90;;;;;;4979960;28;20471;-85
2023/09/22 00:05:12;;;;;;;97.30;48.42;;;14.00;99.90;;;;;;4957079;28;20043;-85
2023/09/22 00:07:38;;;;;;;144.98;54.42;;;14.00;99.90;;;;;;4957075;28;20043;-85
2023/09/22 00:10:06;;;;;;;86.53;50.15;;;14.10;99.90;;;;;;4957611;28;20039;-85
2023/09/22 00:12:32;;;;;;;119.38;51.67;;;14.10;99.90;;;;;;4959142;28;20038;-86
2023/09/22 00:14:58;;;;;;;160.70;56.10;;;14.10;99.90;;;;;;4968833;28;20512;-85
2023/09/22 00:17:24;;;;;;;180.65;56.65;;;14.10;99.90;;;;;;4973490;28;20411;-85
2023/09/22 00:19:50;;;;;;;196.45;59.70;;;14.10;99.90;;;;;;4957570;28;20043;-85
2023/09/22 00:22:15;;;;;;;67.32;45.60;;;14.10;99.90;;;;;;4973726;28;20046;-85
2023/09/22 00:24:41;;;;;;;104.65;49.55;;;14.10;99.90;;;;;;4964962;28;20043;-85
2023/09/22 00:27:07;;;;;;;83.75;45.08;;;14.20;99.90;;;;;;4957489;28;20045;-85
2023/09/22 00:29:32;;;;;;;121.18;52.53;;;14.20;99.90;;;;;;4954686;28;20402;-85
2023/09/22 00:31:58;;;;;;;107.47;49.15;;;14.10;99.90;;;;;;4950091;28;20047;-85
2023/09/22 00:34:23;;;;;;;143.40;51.35;;;14.10;99.90;;;;;;4958483;28;20034;-84
2023/09/22 00:36:52;;;;;;;116.43;52.70;;;14.10;99.90;;;;;;4976538;28;20589;-85
2023/09/22 00:39:18;;;;;;;123.15;51.30;;;14.10;99.90;;;;;;4985494;28;20081;-85
2023/09/22 00:41:43;;;;;;;84.75;47.50;;;14.10;99.90;;;;;;4955599;28;20454;-85
2023/09/22 00:44:09;;;;;;;137.73;51.13;;;14.10;99.90;;;;;;4956702;28;20039;-84
2023/09/22 00:46:35;;;;;;;68.80;44.03;;;14.10;99.90;;;;;;4948650;28;20035;-84
2023/09/22 00:49:01;;;;;;;98.43;49.88;;;14.20;99.90;;;;;;4956417;28;20098;-85
2023/09/22 00:51:27;;;;;;;72.35;45.83;;;14.10;99.90;;;;;;4956439;28;20043;-85
2023/09/22 00:53:53;;;;;;;128.50;51.78;;;14.20;99.90;;;;;;4964910;28;20108;-84
2023/09/22 00:56:20;;;;;;;118.25;50.42;;;14.10;99.90;;;;;;4956377;28;20078;-84
2023/09/22 00:58:49;;;;;;;61.97;43.35;;;14.20;99.90;;;;;;4955915;28;20039;-85
2023/09/22 01:01:15;;;;;;;112.03;51.13;;;14.20;99.90;;;;;;4972791;28;20046;-85
2023/09/22 01:03:41;;;;;;;86.50;49.63;;;14.20;99.90;;;;;;4959897;28;20113;-85
2023/09/22 01:06:09;;;;;;;135.98;53.00;;;14.20;99.90;;;;;;4971791;28;20118;-85
2023/09/22 01:08:36;;;;;;;185.88;58.72;;;14.20;99.90;;;;;;4955045;28;20089;-85
2023/09/22 01:11:01;;;;;;;247.68;61.35;;;14.20;99.90;;;;;;4956576;28;20058;-85
2023/09/22 01:13:27;;;;;;;115.32;51.80;;;14.20;99.90;;;;;;4966928;28;20038;-86
2023/09/22 01:15:53;;;;;;;78.95;44.38;;;14.20;99.90;;;;;;4956596;28;20043;-85
2023/09/22 01:18:19;;;;;;;223.50;59.65;;;14.20;99.90;;;;;;4956807;28;20043;-85
2023/09/22 01:20:45;;;;;;;128.02;50.65;;;14.20;99.90;;;;;;4956182;28;20038;-85
2023/09/22 01:23:12;;;;;;;160.45;52.70;;;14.20;99.90;;;;;;4946609;28;20117;-86
2023/09/22 01:25:45;;;;;;;174.77;50.97;;;14.20;99.90;;;;;;4991936;28;20035;-85
2023/09/22 01:28:12;;;;;;;146.27;49.45;;;14.10;99.90;;;;;;4973597;28;20042;-85
2023/09/22 01:30:41;;;;;;;148.77;51.03;;;14.10;99.90;;;;;;4972401;28;20034;-85
2023/09/22 01:33:07;;;;;;;76.85;43.58;;;14.00;99.90;;;;;;4963186;28;20065;-85
2023/09/22 01:35:33;;;;;;;152.27;50.85;;;14.00;99.90;;;;;;4981116;28;20406;-85
2023/09/22 01:38:23;;;;;;;81.50;40.63;;;13.90;99.90;;;;;;4955935;28;20125;-86
2023/09/22 01:40:49;;;;;;;102.78;45.30;;;13.90;99.90;;;;;;4937006;29;20512;-85
2023/09/22 01:43:16;;;;;;;68.95;39.03;;;13.90;99.90;;;;;;4957379;28;20046;-85
2023/09/22 01:45:43;;;;;;;243.57;51.92;;;13.90;99.90;;;;;;4956061;28;20049;-85
2023/09/22 01:48:09;;;;;;;92.85;43.85;;;13.80;99.90;;;;;;4945119;28;20065;-85
2023/09/22 01:50:37;;;;;;;243.65;51.30;;;13.80;99.90;;;;;;4955727;28;20035;-85
2023/09/22 01:53:08;;;;;;;119.30;46.13;;;13.70;99.90;;;;;;4955261;28;20417;-86
2023/09/22 01:55:34;;;;;;;130.43;46.08;;;13.70;99.90;;;;;;4956029;28;20078;-86
2023/09/22 01:58:00;;;;;;;81.93;41.47;;;13.70;99.90;;;;;;4971969;28;20062;-86
2023/09/22 02:00:26;;;;;;;219.77;52.17;;;13.70;99.90;;;;;;4955802;28;20051;-86
2023/09/22 02:02:52;;;;;;;126.45;44.95;;;13.60;99.90;;;;;;4945632;29;20138;-85
2023/09/22 02:05:18;;;;;;;126.82;44.10;;;13.60;99.90;;;;;;4985672;28;20038;-85
2023/09/22 02:07:44;;;;;;;165.27;45.13;;;13.70;99.90;;;;;;4954646;28;20098;-85
2023/09/22 02:10:12;;;;;;;155.63;47.13;;;13.60;99.90;;;;;;4956019;28;20035;-85
2023/09/22 02:12:38;;;;;;;92.13;40.17;;;13.60;99.90;;;;;;4958866;28;20068;-86
2023/09/22 02:15:07;;;;;;;64.60;39.47;;;13.60;99.90;;;;;;4967258;28;20426;-86
2023/09/22 02:17:33;;;;;;;110.20;41.25;;;13.50;99.90;;;;;;4991278;28;20057;-85
2023/09/22 02:19:58;;;;;;;154.13;46.67;;;13.50;99.90;;;;;;4958292;28;20046;-86
2023/09/22 02:22:24;;;;;;;172.52;45.10;;;13.40;99.90;;;;;;4955760;28;20045;-85
2023/09/22 02:24:49;;;;;;;141.02;45.05;;;13.40;99.90;;;;;;4968312;28;20507;-85
2023/09/22 02:27:15;;;;;;;157.68;46.88;;;13.40;99.90;;;;;;4975010;28;20104;-85
2023/09/22 02:29:40;;;;;;;195.85;49.83;;;13.40;99.90;;;;;;4961743;28;20042;-85
2023/09/22 02:32:06;;;;;;;104.88;41.83;;;13.40;99.90;;;;;;4955249;28;20124;-85
2023/09/22 02:34:33;;;;;;;103.90;40.28;;;13.40;99.90;;;;;;4967166;28;20626;-85
2023/09/22 02:36:58;;;;;;;130.18;43.40;;;13.30;99.90;;;;;;4980732;28;20043;-85
2023/09/22 02:39:24;;;;;;;146.40;43.22;;;13.30;99.90;;;;;;4974957;28;20053;-84
2023/09/22 02:41:50;;;;;;;193.40;47.15;;;13.30;99.90;;;;;;4959126;28;20049;-85
2023/09/22 02:44:15;;;;;;;119.78;39.72;;;13.30;99.90;;;;;;4969849;28;20124;-84
2023/09/22 02:46:41;;;;;;;115.38;35.13;;;13.30;99.90;;;;;;4965608;28;20057;-84
2023/09/22 02:49:08;;;;;;;93.75;36.58;;;13.30;99.90;;;;;;4959370;28;20042;-85
2023/09/22 02:51:34;;;;;;;88.53;34.00;;;13.30;99.90;;;;;;4959328;28;20101;-84
2023/09/22 02:53:59;;;;;;;68.82;32.47;;;13.30;99.90;;;;;;4959188;28;20035;-86
2023/09/22 02:56:25;;;;;;;120.15;36.47;;;13.30;99.90;;;;;;4975097;28;20043;-86
2023/09/22 02:58:50;;;;;;;77.28;32.15;;;13.30;99.90;;;;;;4973638;28;20041;-85
2023/09/22 03:01:16;;;;;;;50.13;28.95;;;13.20;99.90;;;;;;4975349;28;20039;-85
2023/09/22 03:03:42;;;;;;;166.85;39.20;;;13.20;99.90;;;;;;4970479;28;20042;-85
2023/09/22 03:06:11;;;;;;;121.10;38.17;;;13.20;99.90;;;;;;4978167;28;20042;-85
2023/09/22 03:08:37;;;;;;;55.38;30.88;;;13.20;99.90;;;;;;4960108;28;20039;-85
2023/09/22 03:11:04;;;;;;;68.85;33.97;;;13.20;99.90;;;;;;4958703;28;20489;-85
2023/09/22 03:13:29;;;;;;;118.72;39.92;;;13.20;99.90;;;;;;4956794;28;20054;-85
2023/09/22 03:15:55;;;;;;;55.35;33.42;;;13.20;99.90;;;;;;4958583;28;20100;-84
2023/09/22 03:18:21;;;;;;;143.73;42.50;;;13.20;99.90;;;;;;4958550;28;20386;-85
2023/09/22 09:53:58;;;;;;;3.90;1.75;;;18.10;99.90;;;;;;5103621;23;20334;-82
2023/09/22 10:06:17;;;;;;;2.80;1.50;;;17.80;99.90;;;;;;5077599;23;20087;-83
2023/09/22 14:01:39;;;;;;;2.30;1.50;;;17.50;99.90;;;;;;4954444;28;20047;-84
2023/09/22 14:04:05;;;;;;;3.83;1.95;;;17.50;99.90;;;;;;4940303;28;20043;-84
2023/09/22 14:06:30;;;;;;;3.00;1.48;;;17.60;99.90;;;;;;4946287;29;20058;-82
2023/09/22 14:08:57;;;;;;;3.75;1.30;;;17.70;99.90;;;;;;4932833;29;20138;-85
2023/09/22 14:11:23;;;;;;;4.85;2.10;;;17.70;99.90;;;;;;4927415;29;20043;-85
2023/09/22 14:13:49;;;;;;;3.90;1.90;;;17.70;99.90;;;;;;4928735;29;20050;-84
2023/09/22 14:16:14;;;;;;;2.53;1.50;;;17.60;99.90;;;;;;4936028;29;20035;-85
2023/09/22 14:18:40;;;;;;;4.18;1.65;;;17.60;99.90;;;;;;4902212;29;20094;-86
2023/09/22 14:21:08;;;;;;;3.75;1.45;;;17.60;99.90;;;;;;4910108;29;20047;-85
2023/09/22 14:23:34;;;;;;;5.30;2.30;;;17.50;99.90;;;;;;4912947;29;20501;-85
2023/09/22 14:26:00;;;;;;;1.52;1.42;;;17.50;99.90;;;;;;4936301;29;20043;-86
2023/09/22 14:28:27;;;;;;;3.33;1.90;;;17.40;99.90;;;;;;4933283;29;20035;-86
2023/09/22 14:30:55;;;;;;;2.47;1.55;;;17.40;99.90;;;;;;4928972;29;20088;-85
2023/09/22 14:33:21;;;;;;;2.88;1.40;;;17.40;99.90;;;;;;4929188;29;20074;-84
2023/09/22 14:35:48;;;;;;;4.22;2.00;;;17.40;99.90;;;;;;4936220;29;20110;-85
2023/09/22 14:38:14;;;;;;;5.22;1.90;;;17.40;99.90;;;;;;4938972;29;20047;-84
2023/09/22 14:40:40;;;;;;;3.22;1.95;;;17.40;99.90;;;;;;4932677;29;20039;-84
2023/09/22 14:43:06;;;;;;;2.28;1.35;;;17.60;99.90;;;;;;4923289;29;20039;-84
2023/09/22 14:45:36;;;;;;;4.38;1.70;;;17.40;99.90;;;;;;4921719;29;20042;-84
2023/09/22 14:48:04;;;;;;;3.95;2.08;;;17.40;99.90;;;;;;4921081;29;20434;-85
2023/09/22 14:50:32;;;;;;;3.08;1.73;;;17.40;99.90;;;;;;4905921;29;20125;-84
2023/09/22 14:52:57;;;;;;;3.80;1.83;;;17.40;99.90;;;;;;4905660;29;20044;-84
2023/09/22 14:55:23;;;;;;;3.28;1.77;;;17.40;99.90;;;;;;4928755;29;20038;-84
2023/09/22 14:57:49;;;;;;;2.53;1.92;;;17.40;99.90;;;;;;4934700;29;20043;-83
2023/09/22 15:00:15;;;;;;;3.70;1.75;;;17.40;99.90;;;;;;4929764;29;20047;-84
2023/09/22 15:02:41;;;;;;;2.60;1.70;;;17.30;99.90;;;;;;4924053;29;20089;-84
2023/09/22 15:05:08;;;;;;;2.97;1.88;;;17.20;99.90;;;;;;4923107;29;20039;-84
2023/09/22 15:07:36;;;;;;;3.58;1.67;;;17.10;99.90;;;;;;4929275;29;20047;-84
2023/09/22 15:10:02;;;;;;;4.43;1.90;;;17.00;99.90;;;;;;4905221;29;20134;-84
2023/09/22 15:12:28;;;;;;;3.10;1.70;;;16.90;99.90;;;;;;4920833;29;20193;-84
2023/09/22 15:14:55;;;;;;;2.50;1.52;;;16.80;99.90;;;;;;4905302;29;20510;-84
2023/09/22 15:17:21;;;;;;;2.17;1.60;;;16.70;99.90;;;;;;4932323;28;20098;-83
2023/09/22 15:19:50;;;;;;;4.22;1.75;;;16.70;99.90;;;;;;4916130;29;20039;-84
2023/09/22 15:22:15;;;;;;;3.05;1.60;;;16.70;99.90;;;;;;4923049;29;20047;-84
2023/09/22 15:24:41;;;;;;;4.15;1.90;;;16.70;99.90;;;;;;4931344;29;20454;-84
2023/09/22 15:27:07;;;;;;;2.47;1.42;;;16.70;99.90;;;;;;4938144;28;20047;-84
2023/09/22 15:29:33;;;;;;;2.38;1.58;;;16.80;99.90;;;;;;4916144;29;20035;-84
2023/09/22 15:31:59;;;;;;;2.05;1.20;;;16.70;99.90;;;;;;4939803;29;20043;-84
2023/09/22 15:34:26;;;;;;;2.72;1.55;;;16.70;99.90;;;;;;4932945;29;20046;-84
2023/09/22 15:36:51;;;;;;;2.78;1.30;;;16.60;99.90;;;;;;4933247;29;20051;-84
2023/09/22 15:39:17;;;;;;;2.70;1.40;;;16.50;99.90;;;;;;4939331;29;20405;-84
2023/09/22 15:41:43;;;;;;;2.28;1.40;;;16.40;99.90;;;;;;4920941;29;20035;-84
2023/09/22 15:44:08;;;;;;;6.53;1.98;;;16.40;99.90;;;;;;4918706;29;20055;-84
2023/09/22 15:46:34;;;;;;;3.78;1.92;;;16.40;99.90;;;;;;4930999;29;20047;-85
2023/09/22 15:49:00;;;;;;;2.97;1.40;;;16.30;99.90;;;;;;4937933;29;20430;-84
2023/09/22 15:51:26;;;;;;;6.75;2.13;;;16.30;99.90;;;;;;4935859;29;20050;-84
2023/09/22 15:53:52;;;;;;;5.60;1.60;;;16.30;99.90;;;;;;4937716;29;20035;-84
2023/09/22 15:56:17;;;;;;;3.17;1.80;;;16.20;99.90;;;;;;4922452;29;20051;-84
2023/09/22 15:58:43;;;;;;;9.23;2.70;;;16.20;99.90;;;;;;4904346;29;20047;-84
2023/09/22 16:01:08;;;;;;;3.63;1.83;;;16.20;99.90;;;;;;4906993;29;20079;-84
2023/09/22 16:03:34;;;;;;;6.63;2.63;;;16.20;99.90;;;;;;4906164;29;20051;-84
2023/09/22 16:06:00;;;;;;;3.00;2.30;;;16.20;99.90;;;;;;4922833;29;20039;-85
2023/09/22 16:08:26;;;;;;;2.95;2.40;;;16.20;99.90;;;;;;4921536;29;20091;-84
2023/09/22 16:10:51;;;;;;;4.70;2.13;;;16.20;99.90;;;;;;4904135;29;20047;-84
2023/09/22 16:13:17;;;;;;;3.15;2.10;;;16.10;99.90;;;;;;4920085;29;20047;-84
2023/09/22 16:15:47;;;;;;;4.00;2.50;;;16.10;99.90;;;;;;4929829;29;20031;-84
2023/09/22 16:18:13;;;;;;;2.92;2.50;;;16.00;99.90;;;;;;4939004;29;20054;-84
2023/09/22 16:20:39;;;;;;;2.50;2.30;;;15.90;99.90;;;;;;4937953;29;20046;-84
2023/09/22 16:23:04;;;;;;;4.22;2.83;;;15.80;99.90;;;;;;4930599;29;20031;-84
2023/09/22 16:25:33;;;;;;;4.47;2.40;;;15.70;99.90;;;;;;4938432;29;20138;-84
2023/09/22 16:27:59;;;;;;;4.10;2.60;;;15.60;99.90;;;;;;4938340;29;20043;-84
2023/09/22 16:30:25;;;;;;;4.28;2.47;;;15.50;99.90;;;;;;4932432;29;20456;-84
2023/09/22 16:32:51;;;;;;;3.30;2.28;;;15.40;99.90;;;;;;4916441;29;20414;-84
2023/09/22 16:35:16;;;;;;;4.00;2.15;;;15.30;99.90;;;;;;4922637;29;20035;-84
2023/09/22 16:37:42;;;;;;;6.30;2.80;;;15.20;99.90;;;;;;4938502;29;20047;-84
2023/09/22 16:40:08;;;;;;;4.03;2.55;;;15.20;99.90;;;;;;4937690;29;20500;-84
2023/09/22 16:42:33;;;;;;;5.38;3.05;;;15.20;99.90;;;;;;4930137;29;20051;-84
2023/09/22 16:44:59;;;;;;;3.95;3.28;;;15.10;99.90;;;;;;4938076;29;20434;-84
2023/09/22 16:47:24;;;;;;;4.68;3.03;;;15.10;99.90;;;;;;4922346;29;20043;-84
2023/09/22 16:49:50;;;;;;;6.43;2.85;;;15.10;99.90;;;;;;4938387;29;20039;-84
2023/09/22 16:52:16;;;;;;;3.47;2.67;;;15.00;99.90;;;;;;4913541;29;20040;-85
2023/09/22 16:54:43;;;;;;;4.03;3.38;;;15.00;99.90;;;;;;4914283;29;20059;-83
2023/09/22 16:57:10;;;;;;;3.55;2.88;;;15.00;99.90;;;;;;4937734;29;20082;-85
2023/09/22 16:59:36;;;;;;;4.28;3.92;;;15.00;99.90;;;;;;4921892;29;20125;-84
2023/09/22 17:02:03;;;;;;;4.70;3.80;;;15.00;99.90;;;;;;4929290;29;20043;-84
2023/09/22 17:04:29;;;;;;;4.10;3.80;;;15.00;99.90;;;;;;4914393;29;20047;-85
2023/09/22 17:06:55;;;;;;;5.57;3.85;;;14.90;99.90;;;;;;4921799;29;20043;-84
2023/09/22 17:09:21;;;;;;;5.07;3.60;;;14.90;99.90;;;;;;4921771;29;20478;-84
2023/09/22 17:11:47;;;;;;;5.22;3.90;;;15.00;99.90;;;;;;4937903;29;20035;-84
2023/09/22 17:14:14;;;;;;;7.60;4.32;;;14.90;99.90;;;;;;4936993;29;20055;-84
2023/09/22 17:16:39;;;;;;;4.50;3.15;;;14.80;99.90;;;;;;4913752;29;20043;-84
2023/09/22 17:19:05;;;;;;;5.43;3.97;;;14.80;99.90;;;;;;4937768;29;20054;-84
2023/09/22 17:21:31;;;;;;;11.07;5.03;;;14.80;99.90;;;;;;4921958;29;20548;-84
2023/09/22 17:23:57;;;;;;;6.78;4.35;;;14.80;99.90;;;;;;4921751;29;20050;-85
2023/09/22 17:26:23;;;;;;;6.95;4.65;;;14.80;99.90;;;;;;4911149;29;20047;-84
2023/09/22 17:28:49;;;;;;;6.03;4.38;;;14.80;99.90;;;;;;4918467;29;20046;-83
2023/09/22 17:31:15;;;;;;;6.82;4.07;;;14.70;99.90;;;;;;4918375;29;20035;-84
2023/09/22 17:33:41;;;;;;;4.35;3.95;;;14.70;99.90;;;;;;4902676;29;20040;-84
2023/09/22 17:36:07;;;;;;;5.03;3.55;;;14.70;99.90;;;;;;4902421;29;20587;-84
2023/09/22 17:38:34;;;;;;;5.47;3.88;;;14.60;99.90;;;;;;4918518;29;20039;-84
2023/09/22 17:41:00;;;;;;;6.28;3.80;;;14.60;99.90;;;;;;4908476;29;20231;-84
2023/09/22 17:43:26;;;;;;;4.80;3.53;;;14.60;99.90;;;;;;4937393;29;20549;-84
2023/09/22 17:46:03;;;;;;;5.82;3.58;;;14.50;99.90;;;;;;4921328;29;20098;-84
2023/09/22 17:48:29;;;;;;;4.30;3.10;;;14.50;99.90;;;;;;4937035;29;20078;-84
2023/09/22 17:50:56;;;;;;;5.30;2.85;;;14.40;99.90;;;;;;4936148;29;20388;-85
2023/09/22 17:53:22;;;;;;;6.72;3.47;;;14.40;99.90;;;;;;4920046;29;20122;-84
2023/09/22 17:55:48;;;;;;;7.45;3.28;;;14.40;99.90;;;;;;4902228;29;20039;-85
2023/09/22 17:58:15;;;;;;;3.75;2.67;;;14.30;99.90;;;;;;4918170;29;20051;-84
2023/09/22 18:00:41;;;;;;;5.43;3.28;;;14.30;99.90;;;;;;4924590;29;20043;-85
2023/09/22 18:03:07;;;;;;;8.25;3.90;;;14.20;99.90;;;;;;4913114;29;20040;-84
2023/09/22 18:05:32;;;;;;;5.28;3.40;;;14.20;99.90;;;;;;4909794;29;20401;-84
2023/09/22 18:07:58;;;;;;;6.95;3.45;;;14.20;99.90;;;;;;4913647;29;20094;-82
2023/09/22 18:10:23;;;;;;;9.30;3.88;;;14.10;99.90;;;;;;4901205;29;20082;-82
2023/09/22 18:12:49;;;;;;;3.83;2.65;;;14.10;99.90;;;;;;4901262;29;20036;-82
2023/09/22 18:15:15;;;;;;;6.10;3.58;;;14.10;99.90;;;;;;4930816;29;20118;-82
2023/09/22 18:17:45;;;;;;;3.40;2.42;;;14.00;99.90;;;;;;4924429;29;20126;-82
2023/09/22 18:20:11;;;;;;;5.03;3.30;;;14.00;99.90;;;;;;4930962;29;20405;-82
2023/09/22 18:22:37;;;;;;;5.68;3.17;;;14.00;99.90;;;;;;4911859;29;20045;-82
2023/09/22 18:25:04;;;;;;;4.20;2.47;;;13.90;99.90;;;;;;4934531;29;20039;-83
2023/09/22 18:27:30;;;;;;;3.80;3.03;;;13.90;99.90;;;;;;4924977;29;20437;-82
2023/09/22 18:29:56;;;;;;;5.60;3.55;;;13.90;99.90;;;;;;4926323;29;20028;-82
2023/09/22 18:32:22;;;;;;;4.45;3.58;;;13.90;99.90;;;;;;4933058;29;20108;-82
2023/09/22 18:34:49;;;;;;;5.13;4.07;;;13.80;99.90;;;;;;4931292;29;20039;-82
2023/09/22 18:37:15;;;;;;;8.05;4.40;;;13.80;99.90;;;;;;4916562;29;20106;-83
2023/09/22 18:39:41;;;;;;;8.57;4.43;;;13.80;99.90;;;;;;4910647;29;20501;-82
2023/09/22 18:42:07;;;;;;;5.35;4.35;;;13.70;99.90;;;;;;4904992;29;20079;-83
2023/09/22 18:44:32;;;;;;;6.45;4.85;;;13.70;99.90;;;;;;4906375;29;20077;-82
2023/09/22 18:46:58;;;;;;;7.43;5.35;;;13.70;99.90;;;;;;4908004;29;20040;-82
2023/09/22 18:49:24;;;;;;;7.65;5.85;;;13.70;99.90;;;;;;4909538;29;20043;-83
2023/09/22 18:51:49;;;;;;;4.72;4.25;;;13.60;99.90;;;;;;4913213;29;20051;-83
2023/09/22 18:54:15;;;;;;;6.05;5.28;;;13.60;99.90;;;;;;4917175;29;20031;-83
2023/09/22 18:56:40;;;;;;;7.68;6.38;;;13.60;99.90;;;;;;4911353;29;20039;-82
2023/09/22 18:59:08;;;;;;;8.07;7.28;;;13.60;99.90;;;;;;4919703;29;20047;-83
2023/09/22 19:01:34;;;;;;;8.07;7.00;;;13.50;99.90;;;;;;4918753;29;20047;-83
2023/09/22 19:04:00;;;;;;;7.18;6.38;;;13.50;99.90;;;;;;4907815;29;20051;-83
2023/09/22 19:06:28;;;;;;;8.93;6.63;;;13.50;99.90;;;;;;4920590;29;20043;-83
2023/09/22 19:08:55;;;;;;;6.00;5.40;;;13.50;99.90;;;;;;4919291;29;20054;-80
2023/09/22 19:11:22;;;;;;;8.05;7.28;;;13.50;99.90;;;;;;4931115;29;20061;-82
2023/09/22 19:13:49;;;;;;;8.00;7.30;;;13.40;99.90;;;;;;4931671;29;20542;-83
2023/09/22 19:16:15;;;;;;;5.80;4.55;;;13.40;99.90;;;;;;4932168;29;20046;-83
2023/09/22 19:18:45;;;;;;;5.72;4.90;;;13.40;99.90;;;;;;4927929;29;20155;-83
2023/09/22 19:21:11;;;;;;;6.57;5.70;;;13.40;99.90;;;;;;4919536;29;20047;-83
2023/09/22 19:23:45;;;;;;;4.70;3.70;;;13.40;99.90;;;;;;4923339;29;20127;-83
2023/09/22 19:26:11;;;;;;;5.18;4.28;;;13.30;99.90;;;;;;4930130;29;20050;-83
2023/09/22 19:28:37;;;;;;;5.78;5.28;;;13.30;99.90;;;;;;4911945;29;20027;-83
2023/09/22 19:31:04;;;;;;;7.20;5.78;;;13.30;99.90;;;;;;4934019;29;20556;-83
2023/09/22 19:33:30;;;;;;;6.45;5.20;;;13.30;99.90;;;;;;4937495;29;20393;-83
2023/09/22 19:35:57;;;;;;;8.93;6.78;;;13.30;99.90;;;;;;4919391;29;20050;-83
2023/09/22 19:38:23;;;;;;;9.63;8.73;;;13.20;99.90;;;;;;4916285;29;20035;-83
2023/09/22 19:40:49;;;;;;;11.18;7.68;;;13.30;99.90;;;;;;4932475;29;20038;-83
2023/09/22 19:43:15;;;;;;;7.97;7.00;;;13.30;99.90;;;;;;4914580;29;20626;-83
2023/09/22 19:45:41;;;;;;;6.80;6.20;;;13.30;99.90;;;;;;4919606;29;20036;-82
2023/09/22 19:48:07;;;;;;;11.35;8.10;;;13.20;99.90;;;;;;4936909;29;20046;-83
2023/09/22 19:50:33;;;;;;;13.23;10.10;;;13.20;99.90;;;;;;4929692;29;20375;-83
2023/09/22 19:52:59;;;;;;;8.98;8.18;;;13.20;99.90;;;;;;4910825;29;20525;-83
2023/09/22 19:55:24;;;;;;;8.05;7.35;;;13.20;99.90;;;;;;4918851;29;20036;-83
2023/09/22 19:57:50;;;;;;;10.98;9.65;;;13.20;99.90;;;;;;4919963;29;20047;-83
2023/09/22 20:00:16;;;;;;;9.43;8.57;;;13.20;99.90;;;;;;4921513;29;20039;-83
2023/09/22 20:02:42;;;;;;;8.07;7.40;;;13.10;99.90;;;;;;4903256;29;20402;-83
2023/09/22 20:05:15;;;;;;;11.20;9.55;;;13.10;99.90;;;;;;4914384;29;20478;-83
2023/09/22 20:07:41;;;;;;;10.30;9.40;;;13.10;99.90;;;;;;4933935;29;20032;-83
2023/09/22 20:10:08;;;;;;;11.57;10.15;;;13.10;99.90;;;;;;4923738;29;20072;-83
